sensor_id;sensor_type;location;lat;lon;timestamp;P1;durP1;ratioP1;P2;durP2;ratioP2
5622;SDS011;2833;50.432;10.706;2023-04-22T00:01:04;4.47;;;4.03;;
5622;SDS011;2833;50.432;10.706;2023-04-22T00:03:30;5.50;;;4.50;;
5622;SDS011;2833;50.432;10.706;2023-04-22T00:05:57;7.27;;;4.63;;
5622;SDS011;2833;50.432;10.706;2023-04-22T00:08:22;7.97;;;5.07;;
5622;SDS011;2833;50.432;10.706;2023-04-22T00:10:47;9.30;;;4.30;;
5622;SDS011;2833;50.432;10.706;2023-04-22T00:13:13;6.23;;;4.87;;
5622;SDS011;2833;50.432;10.706;2023-04-22T00:15:38;6.53;;;4.63;;
5622;SDS011;2833;50.432;10.706;2023-04-22T00:18:03;8.60;;;5.97;;
5622;SDS011;2833;50.432;10.706;2023-04-22T00:20:29;11.10;;;6.60;;
5622;SDS011;2833;50.432;10.706;2023-04-22T00:22:57;10.50;;;6.10;;
5622;SDS011;2833;50.432;10.706;2023-04-22T00:25:22;9.07;;;5.77;;
5622;SDS011;2833;50.432;10.706;2023-04-22T00:27:47;7.10;;;5.23;;
5622;SDS011;2833;50.432;10.706;2023-04-22T00:30:13;10.77;;;5.00;;
5622;SDS011;2833;50.432;10.706;2023-04-22T00:32:38;5.40;;;3.90;;
5622;SDS011;2833;50.432;10.706;2023-04-22T00:35:04;5.33;;;4.60;;
5622;SDS011;2833;50.432;10.706;2023-04-22T00:37:29;8.00;;;4.40;;
5622;SDS011;2833;50.432;10.706;2023-04-22T00:39:54;6.07;;;4.20;;
5622;SDS011;2833;50.432;10.706;2023-04-22T00:42:21;5.10;;;4.20;;
5622;SDS011;2833;50.432;10.706;2023-04-22T00:44:47;5.53;;;4.77;;
5622;SDS011;2833;50.432;10.706;2023-04-22T00:47:12;5.23;;;4.40;;
5622;SDS011;2833;50.432;10.706;2023-04-22T00:49:37;4.90;;;3.97;;
5622;SDS011;2833;50.432;10.706;2023-04-22T00:52:03;5.60;;;4.23;;
5622;SDS011;2833;50.432;10.706;2023-04-22T00:54:28;4.97;;;3.87;;
5622;SDS011;2833;50.432;10.706;2023-04-22T00:56:54;6.73;;;4.40;;
5622;SDS011;2833;50.432;10.706;2023-04-22T00:59:20;4.53;;;3.87;;
5622;SDS011;2833;50.432;10.706;2023-04-22T01:01:46;8.07;;;4.40;;
5622;SDS011;2833;50.432;10.706;2023-04-22T01:04:12;6.80;;;4.47;;
5622;SDS011;2833;50.432;10.706;2023-04-22T01:06:38;4.93;;;4.40;;
5622;SDS011;2833;50.432;10.706;2023-04-22T01:09:03;5.03;;;3.80;;
5622;SDS011;2833;50.432;10.706;2023-04-22T01:11:29;5.47;;;4.40;;
5622;SDS011;2833;50.432;10.706;2023-04-22T01:13:54;4.30;;;3.57;;
5622;SDS011;2833;50.432;10.706;2023-04-22T01:16:20;6.53;;;4.47;;
5622;SDS011;2833;50.432;10.706;2023-04-22T01:18:46;7.03;;;3.90;;
5622;SDS011;2833;50.432;10.706;2023-04-22T01:21:11;8.67;;;3.83;;
5622;SDS011;2833;50.432;10.706;2023-04-22T01:23:37;6.70;;;4.27;;
5622;SDS011;2833;50.432;10.706;2023-04-22T01:26:02;7.00;;;4.60;;
5622;SDS011;2833;50.432;10.706;2023-04-22T01:28:27;7.70;;;4.90;;
5622;SDS011;2833;50.432;10.706;2023-04-22T01:30:53;7.67;;;4.23;;
5622;SDS011;2833;50.432;10.706;2023-04-22T01:33:19;5.20;;;4.70;;
5622;SDS011;2833;50.432;10.706;2023-04-22T01:35:44;7.13;;;5.10;;
5622;SDS011;2833;50.432;10.706;2023-04-22T01:38:10;13.30;;;5.90;;
5622;SDS011;2833;50.432;10.706;2023-04-22T01:40:36;6.87;;;5.50;;
5622;SDS011;2833;50.432;10.706;2023-04-22T01:43:01;5.80;;;4.87;;
5622;SDS011;2833;50.432;10.706;2023-04-22T01:45:27;7.43;;;4.90;;
5622;SDS011;2833;50.432;10.706;2023-04-22T01:47:52;9.77;;;5.20;;
5622;SDS011;2833;50.432;10.706;2023-04-22T01:50:17;8.67;;;5.90;;
5622;SDS011;2833;50.432;10.706;2023-04-22T01:52:43;10.43;;;5.07;;
5622;SDS011;2833;50.432;10.706;2023-04-22T01:55:08;6.77;;;4.70;;
5622;SDS011;2833;50.432;10.706;2023-04-22T01:57:33;5.77;;;4.60;;
5622;SDS011;2833;50.432;10.706;2023-04-22T01:59:58;5.17;;;3.90;;
5622;SDS011;2833;50.432;10.706;2023-04-22T02:02:24;9.27;;;4.77;;
5622;SDS011;2833;50.432;10.706;2023-04-22T02:04:49;9.60;;;5.17;;
5622;SDS011;2833;50.432;10.706;2023-04-22T02:07:15;7.23;;;4.70;;
5622;SDS011;2833;50.432;10.706;2023-04-22T02:09:40;8.87;;;6.07;;
5622;SDS011;2833;50.432;10.706;2023-04-22T02:12:05;10.37;;;7.33;;
5622;SDS011;2833;50.432;10.706;2023-04-22T02:14:30;6.93;;;5.37;;
5622;SDS011;2833;50.432;10.706;2023-04-22T02:16:55;6.93;;;4.83;;
5622;SDS011;2833;50.432;10.706;2023-04-22T02:19:21;5.23;;;4.00;;
5622;SDS011;2833;50.432;10.706;2023-04-22T02:21:46;7.43;;;4.80;;
5622;SDS011;2833;50.432;10.706;2023-04-22T02:24:11;7.40;;;4.57;;
5622;SDS011;2833;50.432;10.706;2023-04-22T02:26:36;7.70;;;4.50;;
5622;SDS011;2833;50.432;10.706;2023-04-22T02:29:01;10.30;;;4.70;;
5622;SDS011;2833;50.432;10.706;2023-04-22T02:31:26;8.47;;;4.00;;
5622;SDS011;2833;50.432;10.706;2023-04-22T02:33:52;8.80;;;4.63;;
5622;SDS011;2833;50.432;10.706;2023-04-22T02:36:17;7.87;;;4.40;;
5622;SDS011;2833;50.432;10.706;2023-04-22T02:38:42;8.10;;;4.33;;
5622;SDS011;2833;50.432;10.706;2023-04-22T02:41:07;6.17;;;4.00;;
5622;SDS011;2833;50.432;10.706;2023-04-22T02:43:32;7.00;;;4.40;;
5622;SDS011;2833;50.432;10.706;2023-04-22T02:45:58;4.77;;;3.90;;
5622;SDS011;2833;50.432;10.706;2023-04-22T02:48:23;6.40;;;4.30;;
5622;SDS011;2833;50.432;10.706;2023-04-22T02:50:48;5.43;;;4.40;;
5622;SDS011;2833;50.432;10.706;2023-04-22T02:53:13;6.97;;;4.20;;
5622;SDS011;2833;50.432;10.706;2023-04-22T02:55:39;7.10;;;4.73;;
5622;SDS011;2833;50.432;10.706;2023-04-22T02:58:05;4.93;;;4.10;;
5622;SDS011;2833;50.432;10.706;2023-04-22T03:00:30;6.03;;;4.43;;
5622;SDS011;2833;50.432;10.706;2023-04-22T03:02:55;5.50;;;4.50;;
5622;SDS011;2833;50.432;10.706;2023-04-22T03:05:20;11.57;;;4.67;;
5622;SDS011;2833;50.432;10.706;2023-04-22T03:07:46;7.17;;;4.80;;
5622;SDS011;2833;50.432;10.706;2023-04-22T03:10:11;8.80;;;4.40;;
5622;SDS011;2833;50.432;10.706;2023-04-22T03:12:36;4.47;;;4.07;;
5622;SDS011;2833;50.432;10.706;2023-04-22T03:15:02;6.87;;;4.07;;
5622;SDS011;2833;50.432;10.706;2023-04-22T03:17:27;6.80;;;4.50;;
5622;SDS011;2833;50.432;10.706;2023-04-22T03:19:52;5.47;;;4.07;;
5622;SDS011;2833;50.432;10.706;2023-04-22T03:22:17;6.57;;;4.17;;
5622;SDS011;2833;50.432;10.706;2023-04-22T03:24:42;4.07;;;3.60;;
5622;SDS011;2833;50.432;10.706;2023-04-22T03:27:08;4.90;;;4.00;;
5622;SDS011;2833;50.432;10.706;2023-04-22T03:29:34;6.93;;;4.33;;
5622;SDS011;2833;50.432;10.706;2023-04-22T03:31:59;7.13;;;4.50;;
5622;SDS011;2833;50.432;10.706;2023-04-22T03:34:24;6.17;;;4.10;;
5622;SDS011;2833;50.432;10.706;2023-04-22T03:36:50;8.70;;;4.77;;
5622;SDS011;2833;50.432;10.706;2023-04-22T03:39:15;7.37;;;3.97;;
5622;SDS011;2833;50.432;10.706;2023-04-22T03:41:41;14.93;;;4.70;;
5622;SDS011;2833;50.432;10.706;2023-04-22T03:44:06;5.30;;;4.20;;
5622;SDS011;2833;50.432;10.706;2023-04-22T03:46:31;5.47;;;4.10;;
5622;SDS011;2833;50.432;10.706;2023-04-22T03:48:56;5.63;;;4.60;;
5622;SDS011;2833;50.432;10.706;2023-04-22T03:51:21;4.80;;;4.20;;
5622;SDS011;2833;50.432;10.706;2023-04-22T03:53:46;5.07;;;3.90;;
5622;SDS011;2833;50.432;10.706;2023-04-22T03:56:12;4.97;;;4.47;;
5622;SDS011;2833;50.432;10.706;2023-04-22T03:58:37;10.10;;;4.40;;
5622;SDS011;2833;50.432;10.706;2023-04-22T04:01:02;7.43;;;4.10;;
5622;SDS011;2833;50.432;10.706;2023-04-22T04:03:27;5.90;;;4.67;;
5622;SDS011;2833;50.432;10.706;2023-04-22T04:05:53;4.23;;;3.83;;
5622;SDS011;2833;50.432;10.706;2023-04-22T04:08:18;6.50;;;4.80;;
5622;SDS011;2833;50.432;10.706;2023-04-22T04:10:43;6.40;;;5.03;;
5622;SDS011;2833;50.432;10.706;2023-04-22T04:13:08;7.13;;;4.83;;
5622;SDS011;2833;50.432;10.706;2023-04-22T04:15:33;12.93;;;5.00;;
5622;SDS011;2833;50.432;10.706;2023-04-22T04:18:00;13.07;;;4.57;;
5622;SDS011;2833;50.432;10.706;2023-04-22T04:20:27;10.53;;;5.23;;
5622;SDS011;2833;50.432;10.706;2023-04-22T04:22:52;14.13;;;5.37;;
5622;SDS011;2833;50.432;10.706;2023-04-22T04:25:17;9.83;;;5.10;;
5622;SDS011;2833;50.432;10.706;2023-04-22T04:27:45;8.00;;;5.03;;
5622;SDS011;2833;50.432;10.706;2023-04-22T04:30:10;5.60;;;4.73;;
5622;SDS011;2833;50.432;10.706;2023-04-22T04:32:35;6.57;;;4.40;;
5622;SDS011;2833;50.432;10.706;2023-04-22T04:35:01;16.20;;;5.90;;
5622;SDS011;2833;50.432;10.706;2023-04-22T04:37:27;8.80;;;5.60;;
5622;SDS011;2833;50.432;10.706;2023-04-22T04:39:52;9.30;;;5.23;;
5622;SDS011;2833;50.432;10.706;2023-04-22T04:42:17;8.83;;;4.50;;
5622;SDS011;2833;50.432;10.706;2023-04-22T04:44:43;6.70;;;5.13;;
5622;SDS011;2833;50.432;10.706;2023-04-22T04:47:09;8.87;;;5.23;;
5622;SDS011;2833;50.432;10.706;2023-04-22T04:49:34;9.50;;;6.70;;
5622;SDS011;2833;50.432;10.706;2023-04-22T04:52:03;7.73;;;5.10;;
5622;SDS011;2833;50.432;10.706;2023-04-22T04:54:29;7.43;;;4.90;;
5622;SDS011;2833;50.432;10.706;2023-04-22T04:56:54;7.53;;;5.13;;
5622;SDS011;2833;50.432;10.706;2023-04-22T04:59:21;7.07;;;4.83;;
5622;SDS011;2833;50.432;10.706;2023-04-22T05:01:46;9.43;;;5.20;;
5622;SDS011;2833;50.432;10.706;2023-04-22T05:04:11;7.93;;;5.00;;
5622;SDS011;2833;50.432;10.706;2023-04-22T05:06:36;6.40;;;5.17;;
5622;SDS011;2833;50.432;10.706;2023-04-22T05:09:02;6.37;;;5.57;;
5622;SDS011;2833;50.432;10.706;2023-04-22T05:11:27;6.47;;;5.00;;
5622;SDS011;2833;50.432;10.706;2023-04-22T05:13:52;8.67;;;5.93;;
5622;SDS011;2833;50.432;10.706;2023-04-22T05:16:17;8.23;;;5.87;;
5622;SDS011;2833;50.432;10.706;2023-04-22T05:18:43;8.87;;;5.37;;
5622;SDS011;2833;50.432;10.706;2023-04-22T05:21:08;8.07;;;5.80;;
5622;SDS011;2833;50.432;10.706;2023-04-22T05:23:33;10.53;;;5.90;;
5622;SDS011;2833;50.432;10.706;2023-04-22T05:25:58;11.90;;;6.43;;
5622;SDS011;2833;50.432;10.706;2023-04-22T05:28:24;10.50;;;7.03;;
5622;SDS011;2833;50.432;10.706;2023-04-22T05:30:49;7.57;;;5.90;;
5622;SDS011;2833;50.432;10.706;2023-04-22T05:33:14;6.10;;;5.17;;
5622;SDS011;2833;50.432;10.706;2023-04-22T05:35:40;9.40;;;4.80;;
5622;SDS011;2833;50.432;10.706;2023-04-22T05:38:05;7.93;;;5.23;;
5622;SDS011;2833;50.432;10.706;2023-04-22T05:40:30;8.30;;;5.30;;
5622;SDS011;2833;50.432;10.706;2023-04-22T05:42:56;6.20;;;4.67;;
5622;SDS011;2833;50.432;10.706;2023-04-22T05:45:21;7.90;;;5.07;;
5622;SDS011;2833;50.432;10.706;2023-04-22T05:47:46;8.63;;;5.10;;
5622;SDS011;2833;50.432;10.706;2023-04-22T05:50:11;8.77;;;5.17;;
5622;SDS011;2833;50.432;10.706;2023-04-22T05:52:38;6.90;;;5.20;;
5622;SDS011;2833;50.432;10.706;2023-04-22T05:55:03;6.97;;;5.07;;
5622;SDS011;2833;50.432;10.706;2023-04-22T05:57:29;6.03;;;4.90;;
5622;SDS011;2833;50.432;10.706;2023-04-22T05:59:55;6.23;;;5.23;;
5622;SDS011;2833;50.432;10.706;2023-04-22T06:02:20;4.93;;;4.43;;
5622;SDS011;2833;50.432;10.706;2023-04-22T06:04:45;10.30;;;5.17;;
5622;SDS011;2833;50.432;10.706;2023-04-22T06:07:10;5.60;;;4.50;;
5622;SDS011;2833;50.432;10.706;2023-04-22T06:09:36;6.20;;;4.80;;
5622;SDS011;2833;50.432;10.706;2023-04-22T06:12:01;6.73;;;4.67;;
5622;SDS011;2833;50.432;10.706;2023-04-22T06:14:26;5.70;;;4.37;;
5622;SDS011;2833;50.432;10.706;2023-04-22T06:16:51;6.67;;;4.90;;
5622;SDS011;2833;50.432;10.706;2023-04-22T06:19:17;5.90;;;4.73;;
5622;SDS011;2833;50.432;10.706;2023-04-22T06:21:43;5.43;;;4.40;;
5622;SDS011;2833;50.432;10.706;2023-04-22T06:24:08;8.47;;;4.70;;
5622;SDS011;2833;50.432;10.706;2023-04-22T06:26:34;5.90;;;4.73;;
5622;SDS011;2833;50.432;10.706;2023-04-22T06:29:00;6.13;;;4.57;;
5622;SDS011;2833;50.432;10.706;2023-04-22T06:31:27;7.07;;;4.50;;
5622;SDS011;2833;50.432;10.706;2023-04-22T06:33:52;5.07;;;4.57;;
5622;SDS011;2833;50.432;10.706;2023-04-22T06:36:17;4.93;;;3.80;;
5622;SDS011;2833;50.432;10.706;2023-04-22T06:38:42;8.40;;;4.33;;
5622;SDS011;2833;50.432;10.706;2023-04-22T06:41:07;4.17;;;3.73;;
5622;SDS011;2833;50.432;10.706;2023-04-22T06:43:33;6.27;;;4.30;;
5622;SDS011;2833;50.432;10.706;2023-04-22T06:45:58;5.20;;;3.93;;
5622;SDS011;2833;50.432;10.706;2023-04-22T06:48:23;9.10;;;3.63;;
5622;SDS011;2833;50.432;10.706;2023-04-22T06:50:48;5.30;;;4.23;;
5622;SDS011;2833;50.432;10.706;2023-04-22T06:53:13;4.77;;;4.00;;
5622;SDS011;2833;50.432;10.706;2023-04-22T06:55:39;5.70;;;4.60;;
5622;SDS011;2833;50.432;10.706;2023-04-22T06:58:04;7.90;;;4.50;;
5622;SDS011;2833;50.432;10.706;2023-04-22T07:00:29;5.53;;;4.33;;
5622;SDS011;2833;50.432;10.706;2023-04-22T07:02:54;6.70;;;4.20;;
5622;SDS011;2833;50.432;10.706;2023-04-22T07:05:20;6.83;;;4.93;;
5622;SDS011;2833;50.432;10.706;2023-04-22T07:07:45;5.43;;;3.60;;
5622;SDS011;2833;50.432;10.706;2023-04-22T07:10:11;7.07;;;4.83;;
5622;SDS011;2833;50.432;10.706;2023-04-22T07:12:37;6.97;;;4.10;;
5622;SDS011;2833;50.432;10.706;2023-04-22T07:15:02;8.70;;;3.83;;
5622;SDS011;2833;50.432;10.706;2023-04-22T07:17:28;6.10;;;4.17;;
5622;SDS011;2833;50.432;10.706;2023-04-22T07:19:53;4.60;;;3.83;;
5622;SDS011;2833;50.432;10.706;2023-04-22T07:22:18;6.73;;;3.90;;
5622;SDS011;2833;50.432;10.706;2023-04-22T07:24:43;5.40;;;4.10;;
5622;SDS011;2833;50.432;10.706;2023-04-22T07:27:08;9.03;;;4.00;;
5622;SDS011;2833;50.432;10.706;2023-04-22T07:29:34;3.20;;;2.87;;
5622;SDS011;2833;50.432;10.706;2023-04-22T07:31:59;8.30;;;3.90;;
5622;SDS011;2833;50.432;10.706;2023-04-22T07:34:24;4.73;;;4.17;;
5622;SDS011;2833;50.432;10.706;2023-04-22T07:36:50;4.73;;;4.17;;
5622;SDS011;2833;50.432;10.706;2023-04-22T07:39:16;5.73;;;4.10;;
5622;SDS011;2833;50.432;10.706;2023-04-22T07:41:41;6.43;;;4.40;;
5622;SDS011;2833;50.432;10.706;2023-04-22T07:44:06;3.80;;;3.40;;
5622;SDS011;2833;50.432;10.706;2023-04-22T07:46:31;6.37;;;4.13;;
5622;SDS011;2833;50.432;10.706;2023-04-22T07:48:57;4.60;;;3.77;;
5622;SDS011;2833;50.432;10.706;2023-04-22T07:51:22;6.10;;;4.10;;
5622;SDS011;2833;50.432;10.706;2023-04-22T07:53:47;4.40;;;4.00;;
5622;SDS011;2833;50.432;10.706;2023-04-22T07:56:12;4.10;;;3.60;;
5622;SDS011;2833;50.432;10.706;2023-04-22T07:58:38;3.93;;;3.53;;
5622;SDS011;2833;50.432;10.706;2023-04-22T08:01:03;6.70;;;4.40;;
5622;SDS011;2833;50.432;10.706;2023-04-22T08:03:28;4.27;;;3.83;;
5622;SDS011;2833;50.432;10.706;2023-04-22T08:05:53;5.17;;;3.90;;
5622;SDS011;2833;50.432;10.706;2023-04-22T08:08:22;9.63;;;3.90;;
5622;SDS011;2833;50.432;10.706;2023-04-22T08:10:47;8.00;;;5.23;;
5622;SDS011;2833;50.432;10.706;2023-04-22T08:13:12;6.13;;;4.40;;
5622;SDS011;2833;50.432;10.706;2023-04-22T08:15:37;4.97;;;3.63;;
5622;SDS011;2833;50.432;10.706;2023-04-22T08:18:02;7.20;;;3.90;;
5622;SDS011;2833;50.432;10.706;2023-04-22T08:20:28;6.50;;;4.33;;
5622;SDS011;2833;50.432;10.706;2023-04-22T08:22:53;5.90;;;4.07;;
5622;SDS011;2833;50.432;10.706;2023-04-22T08:25:22;7.10;;;3.80;;
5622;SDS011;2833;50.432;10.706;2023-04-22T08:27:48;7.13;;;3.90;;
5622;SDS011;2833;50.432;10.706;2023-04-22T08:30:13;7.50;;;4.10;;
5622;SDS011;2833;50.432;10.706;2023-04-22T08:32:39;5.87;;;4.20;;
5622;SDS011;2833;50.432;10.706;2023-04-22T08:35:04;7.73;;;4.73;;
5622;SDS011;2833;50.432;10.706;2023-04-22T08:37:29;7.53;;;3.97;;
5622;SDS011;2833;50.432;10.706;2023-04-22T08:39:54;5.20;;;3.53;;
5622;SDS011;2833;50.432;10.706;2023-04-22T08:42:19;6.07;;;4.30;;
5622;SDS011;2833;50.432;10.706;2023-04-22T08:44:46;4.87;;;2.97;;
5622;SDS011;2833;50.432;10.706;2023-04-22T08:47:13;6.37;;;4.10;;
5622;SDS011;2833;50.432;10.706;2023-04-22T08:49:38;4.53;;;3.10;;
5622;SDS011;2833;50.432;10.706;2023-04-22T08:52:04;5.63;;;4.33;;
5622;SDS011;2833;50.432;10.706;2023-04-22T08:54:29;6.27;;;3.97;;
5622;SDS011;2833;50.432;10.706;2023-04-22T08:56:54;4.77;;;3.70;;
5622;SDS011;2833;50.432;10.706;2023-04-22T08:59:21;8.77;;;4.77;;
5622;SDS011;2833;50.432;10.706;2023-04-22T09:01:48;6.53;;;4.43;;
5622;SDS011;2833;50.432;10.706;2023-04-22T09:04:13;10.73;;;4.83;;
5622;SDS011;2833;50.432;10.706;2023-04-22T09:06:39;4.50;;;3.83;;
5622;SDS011;2833;50.432;10.706;2023-04-22T09:09:04;6.37;;;4.80;;
5622;SDS011;2833;50.432;10.706;2023-04-22T09:11:30;5.90;;;4.50;;
5622;SDS011;2833;50.432;10.706;2023-04-22T09:13:55;6.40;;;4.30;;
5622;SDS011;2833;50.432;10.706;2023-04-22T09:16:21;6.03;;;3.67;;
5622;SDS011;2833;50.432;10.706;2023-04-22T09:18:46;10.40;;;4.80;;
5622;SDS011;2833;50.432;10.706;2023-04-22T09:21:11;9.63;;;5.47;;
5622;SDS011;2833;50.432;10.706;2023-04-22T09:23:47;6.00;;;4.43;;
5622;SDS011;2833;50.432;10.706;2023-04-22T09:26:13;10.93;;;5.43;;
5622;SDS011;2833;50.432;10.706;2023-04-22T09:28:44;6.23;;;4.90;;
5622;SDS011;2833;50.432;10.706;2023-04-22T09:31:14;6.00;;;4.20;;
5622;SDS011;2833;50.432;10.706;2023-04-22T09:33:39;12.43;;;4.60;;
5622;SDS011;2833;50.432;10.706;2023-04-22T09:36:08;6.23;;;4.23;;
5622;SDS011;2833;50.432;10.706;2023-04-22T09:38:34;6.47;;;4.47;;
5622;SDS011;2833;50.432;10.706;2023-04-22T09:40:59;5.37;;;3.63;;
5622;SDS011;2833;50.432;10.706;2023-04-22T09:43:24;9.53;;;5.00;;
5622;SDS011;2833;50.432;10.706;2023-04-22T09:45:50;7.63;;;4.60;;
5622;SDS011;2833;50.432;10.706;2023-04-22T09:48:17;5.07;;;2.93;;
5622;SDS011;2833;50.432;10.706;2023-04-22T09:50:43;5.20;;;4.00;;
5622;SDS011;2833;50.432;10.706;2023-04-22T09:53:10;4.40;;;3.50;;
5622;SDS011;2833;50.432;10.706;2023-04-22T09:55:37;5.80;;;4.27;;
5622;SDS011;2833;50.432;10.706;2023-04-22T09:58:04;7.37;;;4.50;;
5622;SDS011;2833;50.432;10.706;2023-04-22T10:00:29;5.80;;;4.10;;
5622;SDS011;2833;50.432;10.706;2023-04-22T10:02:55;4.63;;;3.57;;
5622;SDS011;2833;50.432;10.706;2023-04-22T10:05:20;5.23;;;4.07;;
5622;SDS011;2833;50.432;10.706;2023-04-22T10:07:45;4.37;;;3.93;;
5622;SDS011;2833;50.432;10.706;2023-04-22T10:10:10;11.70;;;4.00;;
5622;SDS011;2833;50.432;10.706;2023-04-22T10:12:36;10.37;;;3.80;;
5622;SDS011;2833;50.432;10.706;2023-04-22T10:15:04;7.67;;;3.90;;
5622;SDS011;2833;50.432;10.706;2023-04-22T10:17:30;4.63;;;4.23;;
5622;SDS011;2833;50.432;10.706;2023-04-22T10:19:57;4.57;;;3.53;;
5622;SDS011;2833;50.432;10.706;2023-04-22T10:22:23;7.33;;;4.83;;
5622;SDS011;2833;50.432;10.706;2023-04-22T10:24:48;9.33;;;4.20;;
5622;SDS011;2833;50.432;10.706;2023-04-22T10:27:16;6.87;;;4.60;;
5622;SDS011;2833;50.432;10.706;2023-04-22T10:29:44;7.40;;;3.97;;
5622;SDS011;2833;50.432;10.706;2023-04-22T10:34:35;4.00;;;3.57;;
5622;SDS011;2833;50.432;10.706;2023-04-22T10:37:06;4.70;;;3.90;;
5622;SDS011;2833;50.432;10.706;2023-04-22T10:39:32;5.13;;;3.70;;
5622;SDS011;2833;50.432;10.706;2023-04-22T10:47:29;8.57;;;5.23;;
5622;SDS011;2833;50.432;10.706;2023-04-22T10:52:35;5.70;;;4.07;;
5622;SDS011;2833;50.432;10.706;2023-04-22T10:55:00;4.30;;;2.90;;
5622;SDS011;2833;50.432;10.706;2023-04-22T10:57:33;6.63;;;4.17;;
5622;SDS011;2833;50.432;10.706;2023-04-22T11:00:18;6.57;;;3.90;;
5622;SDS011;2833;50.432;10.706;2023-04-22T11:02:44;4.73;;;3.47;;
5622;SDS011;2833;50.432;10.706;2023-04-22T11:05:16;3.50;;;2.90;;
5622;SDS011;2833;50.432;10.706;2023-04-22T11:07:42;5.50;;;4.00;;
5622;SDS011;2833;50.432;10.706;2023-04-22T11:10:07;5.60;;;4.17;;
5622;SDS011;2833;50.432;10.706;2023-04-22T11:17:34;4.13;;;3.60;;
5622;SDS011;2833;50.432;10.706;2023-04-22T11:20:00;4.30;;;3.90;;
5622;SDS011;2833;50.432;10.706;2023-04-22T11:22:25;5.27;;;3.57;;
5622;SDS011;2833;50.432;10.706;2023-04-22T11:27:19;5.00;;;3.70;;
5622;SDS011;2833;50.432;10.706;2023-04-22T11:30:09;4.70;;;3.70;;
5622;SDS011;2833;50.432;10.706;2023-04-22T11:32:36;11.00;;;6.43;;
5622;SDS011;2833;50.432;10.706;2023-04-22T11:35:04;9.50;;;6.10;;
5622;SDS011;2833;50.432;10.706;2023-04-22T11:37:30;7.60;;;5.60;;
5622;SDS011;2833;50.432;10.706;2023-04-22T11:40:03;8.23;;;4.70;;
5622;SDS011;2833;50.432;10.706;2023-04-22T11:42:28;7.00;;;4.93;;
5622;SDS011;2833;50.432;10.706;2023-04-22T11:44:54;6.57;;;4.40;;
5622;SDS011;2833;50.432;10.706;2023-04-22T11:47:19;6.03;;;3.73;;
5622;SDS011;2833;50.432;10.706;2023-04-22T11:49:57;5.37;;;3.57;;
5622;SDS011;2833;50.432;10.706;2023-04-22T11:52:23;5.93;;;3.33;;
5622;SDS011;2833;50.432;10.706;2023-04-22T11:54:48;11.70;;;4.33;;
5622;SDS011;2833;50.432;10.706;2023-04-22T11:57:13;7.40;;;4.10;;
5622;SDS011;2833;50.432;10.706;2023-04-22T11:59:40;5.60;;;4.10;;
5622;SDS011;2833;50.432;10.706;2023-04-22T12:02:06;4.57;;;3.23;;
5622;SDS011;2833;50.432;10.706;2023-04-22T12:04:36;7.63;;;4.57;;
5622;SDS011;2833;50.432;10.706;2023-04-22T12:07:01;4.67;;;3.17;;
5622;SDS011;2833;50.432;10.706;2023-04-22T12:09:27;3.27;;;2.87;;
5622;SDS011;2833;50.432;10.706;2023-04-22T12:11:52;6.50;;;4.20;;
5622;SDS011;2833;50.432;10.706;2023-04-22T12:14:17;5.77;;;2.97;;
5622;SDS011;2833;50.432;10.706;2023-04-22T12:16:42;7.40;;;3.33;;
5622;SDS011;2833;50.432;10.706;2023-04-22T12:19:08;4.17;;;2.53;;
5622;SDS011;2833;50.432;10.706;2023-04-22T12:21:33;5.20;;;3.37;;
5622;SDS011;2833;50.432;10.706;2023-04-22T12:24:02;4.70;;;3.00;;
5622;SDS011;2833;50.432;10.706;2023-04-22T12:26:28;4.17;;;3.27;;
5622;SDS011;2833;50.432;10.706;2023-04-22T12:28:55;4.17;;;3.67;;
5622;SDS011;2833;50.432;10.706;2023-04-22T12:31:20;3.60;;;2.40;;
5622;SDS011;2833;50.432;10.706;2023-04-22T12:33:46;5.77;;;3.47;;
5622;SDS011;2833;50.432;10.706;2023-04-22T12:36:12;4.10;;;2.90;;
5622;SDS011;2833;50.432;10.706;2023-04-22T12:38:37;3.63;;;2.97;;
5622;SDS011;2833;50.432;10.706;2023-04-22T12:41:03;4.60;;;1.90;;
5622;SDS011;2833;50.432;10.706;2023-04-22T12:43:29;2.50;;;2.27;;
5622;SDS011;2833;50.432;10.706;2023-04-22T12:45:56;5.23;;;2.90;;
5622;SDS011;2833;50.432;10.706;2023-04-22T12:48:21;2.53;;;2.30;;
5622;SDS011;2833;50.432;10.706;2023-04-22T12:50:46;5.23;;;2.70;;
5622;SDS011;2833;50.432;10.706;2023-04-22T12:53:11;7.23;;;3.07;;
5622;SDS011;2833;50.432;10.706;2023-04-22T12:55:37;2.50;;;1.77;;
5622;SDS011;2833;50.432;10.706;2023-04-22T12:58:02;3.57;;;2.60;;
5622;SDS011;2833;50.432;10.706;2023-04-22T13:00:28;3.37;;;2.57;;
5622;SDS011;2833;50.432;10.706;2023-04-22T13:02:53;10.67;;;3.80;;
5622;SDS011;2833;50.432;10.706;2023-04-22T13:05:18;3.80;;;3.37;;
5622;SDS011;2833;50.432;10.706;2023-04-22T13:07:44;5.03;;;3.20;;
5622;SDS011;2833;50.432;10.706;2023-04-22T13:10:10;6.63;;;3.37;;
5622;SDS011;2833;50.432;10.706;2023-04-22T13:12:35;4.93;;;2.87;;
5622;SDS011;2833;50.432;10.706;2023-04-22T13:15:01;2.93;;;2.73;;
5622;SDS011;2833;50.432;10.706;2023-04-22T13:17:27;3.00;;;2.80;;
5622;SDS011;2833;50.432;10.706;2023-04-22T13:19:52;3.40;;;3.00;;
5622;SDS011;2833;50.432;10.706;2023-04-22T13:22:17;3.30;;;3.00;;
5622;SDS011;2833;50.432;10.706;2023-04-22T13:24:43;3.03;;;2.50;;
5622;SDS011;2833;50.432;10.706;2023-04-22T13:27:08;2.80;;;2.60;;
5622;SDS011;2833;50.432;10.706;2023-04-22T13:29:34;3.00;;;2.80;;
5622;SDS011;2833;50.432;10.706;2023-04-22T13:31:59;3.47;;;2.60;;
5622;SDS011;2833;50.432;10.706;2023-04-22T13:34:25;3.70;;;2.70;;
5622;SDS011;2833;50.432;10.706;2023-04-22T13:36:50;3.03;;;2.73;;
5622;SDS011;2833;50.432;10.706;2023-04-22T13:39:15;2.90;;;2.27;;
5622;SDS011;2833;50.432;10.706;2023-04-22T13:41:42;2.40;;;2.00;;
5622;SDS011;2833;50.432;10.706;2023-04-22T13:44:07;3.10;;;2.47;;
5622;SDS011;2833;50.432;10.706;2023-04-22T13:46:34;3.83;;;2.97;;
5622;SDS011;2833;50.432;10.706;2023-04-22T13:48:59;2.40;;;2.20;;
5622;SDS011;2833;50.432;10.706;2023-04-22T13:51:25;2.70;;;2.40;;
5622;SDS011;2833;50.432;10.706;2023-04-22T13:53:50;3.07;;;2.47;;
5622;SDS011;2833;50.432;10.706;2023-04-22T13:56:15;3.50;;;2.47;;
5622;SDS011;2833;50.432;10.706;2023-04-22T13:58:40;3.17;;;2.87;;
5622;SDS011;2833;50.432;10.706;2023-04-22T14:01:06;4.57;;;3.00;;
5622;SDS011;2833;50.432;10.706;2023-04-22T14:03:31;4.10;;;2.33;;
5622;SDS011;2833;50.432;10.706;2023-04-22T14:05:57;2.90;;;2.30;;
5622;SDS011;2833;50.432;10.706;2023-04-22T14:08:22;2.70;;;2.50;;
5622;SDS011;2833;50.432;10.706;2023-04-22T14:10:47;2.07;;;1.97;;
5622;SDS011;2833;50.432;10.706;2023-04-22T14:13:12;2.40;;;2.13;;
5622;SDS011;2833;50.432;10.706;2023-04-22T14:15:38;2.40;;;2.20;;
5622;SDS011;2833;50.432;10.706;2023-04-22T14:18:03;2.47;;;2.27;;
5622;SDS011;2833;50.432;10.706;2023-04-22T14:20:28;3.50;;;2.73;;
5622;SDS011;2833;50.432;10.706;2023-04-22T14:22:53;3.90;;;2.60;;
5622;SDS011;2833;50.432;10.706;2023-04-22T14:25:19;3.60;;;2.70;;
5622;SDS011;2833;50.432;10.706;2023-04-22T14:27:44;4.60;;;2.60;;
5622;SDS011;2833;50.432;10.706;2023-04-22T14:30:09;3.30;;;2.60;;
5622;SDS011;2833;50.432;10.706;2023-04-22T14:32:35;2.53;;;2.27;;
5622;SDS011;2833;50.432;10.706;2023-04-22T14:35:00;3.40;;;2.90;;
5622;SDS011;2833;50.432;10.706;2023-04-22T14:37:26;2.60;;;2.40;;
5622;SDS011;2833;50.432;10.706;2023-04-22T14:39:51;7.93;;;2.90;;
5622;SDS011;2833;50.432;10.706;2023-04-22T14:42:16;4.10;;;3.13;;
5622;SDS011;2833;50.432;10.706;2023-04-22T14:44:43;3.70;;;2.90;;
5622;SDS011;2833;50.432;10.706;2023-04-22T14:47:08;3.00;;;2.77;;
5622;SDS011;2833;50.432;10.706;2023-04-22T14:49:33;2.67;;;2.47;;
5622;SDS011;2833;50.432;10.706;2023-04-22T14:51:58;5.40;;;2.73;;
5622;SDS011;2833;50.432;10.706;2023-04-22T14:54:25;6.13;;;2.50;;
5622;SDS011;2833;50.432;10.706;2023-04-22T14:56:50;2.80;;;2.60;;
5622;SDS011;2833;50.432;10.706;2023-04-22T14:59:18;3.17;;;2.60;;
5622;SDS011;2833;50.432;10.706;2023-04-22T15:01:43;2.37;;;2.17;;
5622;SDS011;2833;50.432;10.706;2023-04-22T15:04:08;5.67;;;2.97;;
5622;SDS011;2833;50.432;10.706;2023-04-22T15:06:36;2.90;;;2.50;;
5622;SDS011;2833;50.432;10.706;2023-04-22T15:09:01;4.50;;;2.47;;